createdAt,value
2022-10-04T00:10:41.922Z,10.30
2022-10-04T00:11:57.084Z,10.33
2022-10-04T00:13:48.978Z,10.35
2022-10-04T00:14:56.007Z,10.36
2022-10-04T00:16:08.303Z,10.38
2022-10-04T00:47:41.869Z,10.17
2022-10-04T00:48:58.590Z,10.20
2022-10-04T01:15:36.996Z,10.20
2022-10-04T01:16:42.118Z,10.21
2022-10-04T01:18:43.782Z,10.22
2022-10-04T01:23:15.490Z,10.19
2022-10-04T01:24:24.647Z,10.21
2022-10-04T01:25:48.989Z,10.25
2022-10-04T01:28:43.162Z,10.26
2022-10-04T01:32:58.779Z,10.20
2022-10-04T01:34:05.668Z,10.18
2022-10-04T01:35:34.433Z,10.15
2022-10-04T01:37:05.387Z,10.12
2022-10-04T01:38:11.701Z,10.11
2022-10-04T01:39:18.660Z,10.11
2022-10-04T01:40:26.660Z,10.09
2022-10-04T01:41:35.020Z,10.07
2022-10-04T01:42:46.794Z,10.08
2022-10-04T01:44:00.791Z,10.10
2022-10-04T01:45:35.167Z,10.09
2022-10-04T01:53:04.249Z,10.06
2022-10-04T01:58:55.898Z,10.04
2022-10-04T02:00:02.091Z,9.99
2022-10-04T02:01:31.167Z,9.98
2022-10-04T02:06:46.426Z,9.82
2022-10-04T02:08:06.951Z,9.82
2022-10-04T02:09:28.125Z,9.83
2022-10-04T02:11:51.778Z,9.86
2022-10-04T02:18:26.479Z,9.77
2022-10-04T02:19:43.554Z,9.77
2022-10-04T02:20:49.851Z,9.79
2022-10-04T02:21:59.738Z,9.82
2022-10-04T02:27:24.960Z,9.77
2022-10-04T02:28:33.590Z,9.80
2022-10-04T02:31:07.937Z,9.82
2022-10-04T02:32:33.231Z,9.84
2022-10-04T02:33:44.103Z,9.88
2022-10-04T02:35:01.465Z,9.91
2022-10-04T02:36:13.208Z,9.95
2022-10-04T02:37:31.977Z,9.95
2022-10-04T02:38:56.219Z,9.97
2022-10-04T02:41:28.089Z,9.92
2022-10-04T02:42:45.474Z,9.92
2022-10-04T02:44:25.839Z,9.91
2022-10-04T02:46:26.677Z,9.87
2022-10-04T02:48:00.339Z,9.85
2022-10-04T02:49:26.922Z,9.86
2022-10-04T02:51:13.947Z,9.84
2022-10-04T02:52:25.903Z,9.83
2022-10-04T02:53:34.138Z,9.81
2022-10-04T02:54:45.467Z,9.81
2022-10-04T02:57:43.722Z,9.74
2022-10-04T02:59:01.301Z,9.72
2022-10-04T03:02:44.224Z,9.64
2022-10-04T03:03:48.796Z,9.63
2022-10-04T03:06:24.672Z,9.64
2022-10-04T03:07:59.273Z,9.63
2022-10-04T03:09:15.492Z,9.65
2022-10-04T03:12:55.013Z,9.70
2022-10-04T03:14:16.239Z,9.73
2022-10-04T03:15:22.977Z,9.73
2022-10-04T03:17:44.405Z,9.75
2022-10-04T03:18:56.467Z,9.75
2022-10-04T03:20:48.649Z,9.77
2022-10-04T03:21:55.739Z,9.78
2022-10-04T03:23:00.229Z,9.81
2022-10-04T03:24:08.366Z,9.83
2022-10-04T03:25:21.429Z,9.83
2022-10-04T03:27:02.225Z,9.83
2022-10-04T03:28:06.627Z,9.81
2022-10-04T03:29:21.270Z,9.81
2022-10-04T03:30:35.799Z,9.81
2022-10-04T03:34:44.668Z,9.78
2022-10-04T03:35:51.400Z,9.78
2022-10-04T03:36:59.736Z,9.79
2022-10-04T03:38:13.729Z,9.80
2022-10-04T03:39:50.728Z,9.78
2022-10-04T03:41:02.832Z,9.78
2022-10-04T03:42:12.701Z,9.78
2022-10-04T03:43:18.388Z,9.77
2022-10-04T03:44:25.525Z,9.78
2022-10-04T03:45:31.627Z,9.80
2022-10-04T03:46:37.152Z,9.81
2022-10-04T03:47:45.746Z,9.84
2022-10-04T03:48:51.627Z,9.84
2022-10-04T03:50:03.529Z,9.85
2022-10-04T03:51:12.400Z,9.85
2022-10-04T03:52:22.746Z,9.86
2022-10-04T03:54:03.943Z,9.85
2022-10-04T03:55:08.797Z,9.81
2022-10-04T03:56:15.519Z,9.81
2022-10-04T03:57:20.608Z,9.80
2022-10-04T03:58:53.735Z,9.79
2022-10-04T04:00:49.076Z,9.79
2022-10-04T04:02:03.714Z,9.79
2022-10-04T04:03:11.453Z,9.78
2022-10-04T04:04:53.791Z,9.78
2022-10-04T04:06:00.537Z,9.79
2022-10-04T04:07:08.572Z,9.80
2022-10-04T04:08:38.974Z,9.80
2022-10-04T04:09:47.291Z,9.82
2022-10-04T04:10:54.846Z,9.82
2022-10-04T04:12:00.239Z,9.81
2022-10-04T04:13:12.700Z,9.82
2022-10-04T04:14:25.147Z,9.81
2022-10-04T04:15:35.354Z,9.82
2022-10-04T04:17:36.862Z,9.82
2022-10-04T04:18:44.691Z,9.81
2022-10-04T04:19:48.643Z,9.81
2022-10-04T04:20:59.470Z,9.82
2022-10-04T04:22:03.709Z,9.81
2022-10-04T04:23:25.274Z,9.81
2022-10-04T04:24:34.444Z,9.79
2022-10-04T04:25:42.856Z,9.79
2022-10-04T04:26:51.608Z,9.78
2022-10-04T04:28:00.778Z,9.76
2022-10-04T04:29:08.880Z,9.74
2022-10-04T04:30:26.506Z,9.73
2022-10-04T04:31:33.614Z,9.71
2022-10-04T04:33:28.919Z,9.67
2022-10-04T04:34:33.973Z,9.67
2022-10-04T04:35:41.348Z,9.67
2022-10-04T04:36:45.209Z,9.65
2022-10-04T04:38:07.868Z,9.64
2022-10-04T04:39:35.285Z,9.61
2022-10-04T04:40:41.419Z,9.58
2022-10-04T04:41:50.328Z,9.57
2022-10-04T04:42:55.134Z,9.55
2022-10-04T04:43:59.066Z,9.53
2022-10-04T04:45:06.421Z,9.52
2022-10-04T04:46:26.798Z,9.50
2022-10-04T04:47:34.580Z,9.48
2022-10-04T04:48:38.163Z,9.47
2022-10-04T04:49:42.441Z,9.46
2022-10-04T04:50:50.069Z,9.46
2022-10-04T04:52:23.575Z,9.45
2022-10-04T04:53:28.579Z,9.43
2022-10-04T04:54:33.370Z,9.43
2022-10-04T04:56:02.168Z,9.43
2022-10-04T04:57:08.139Z,9.42
2022-10-04T04:58:20.437Z,9.42
2022-10-04T04:59:27.668Z,9.39
2022-10-04T05:00:33.406Z,9.37
2022-10-04T05:01:39.945Z,9.37
2022-10-04T05:02:56.238Z,9.37
2022-10-04T05:04:04.495Z,9.36
2022-10-04T05:05:26.409Z,9.35
2022-10-04T05:07:06.567Z,9.33
2022-10-04T05:08:16.826Z,9.33
2022-10-04T05:09:29.216Z,9.35
2022-10-04T05:10:34.569Z,9.36
2022-10-04T05:11:41.962Z,9.39
2022-10-04T05:12:47.506Z,9.42
2022-10-04T05:13:54.011Z,9.44
2022-10-04T05:14:57.778Z,9.46
2022-10-04T05:16:02.927Z,9.48
2022-10-04T05:17:06.948Z,9.49
2022-10-04T05:18:29.779Z,9.53
2022-10-04T05:19:36.238Z,9.54
2022-10-04T05:20:41.018Z,9.56
2022-10-04T05:21:48.423Z,9.59
2022-10-04T05:22:52.246Z,9.60
2022-10-04T05:23:58.021Z,9.63
2022-10-04T05:25:05.307Z,9.65
2022-10-04T05:26:11.680Z,9.68
2022-10-04T05:27:28.567Z,9.70
2022-10-04T05:28:32.734Z,9.73
2022-10-04T05:29:39.561Z,9.75
2022-10-04T05:30:49.375Z,9.75
2022-10-04T05:31:59.390Z,9.77
2022-10-04T05:33:10.804Z,9.77
2022-10-04T05:34:22.991Z,9.78
2022-10-04T05:35:28.188Z,9.80
2022-10-04T05:37:06.793Z,9.82
2022-10-04T05:38:38.187Z,9.81
2022-10-04T05:40:23.954Z,9.82
2022-10-04T05:41:33.619Z,9.83
2022-10-04T05:42:45.618Z,9.85
2022-10-04T05:43:51.030Z,9.87
2022-10-04T05:44:56.797Z,9.90
2022-10-04T05:46:27.072Z,9.95
2022-10-04T05:47:32.046Z,9.97
2022-10-04T05:48:37.549Z,10.00
2022-10-04T05:49:44.329Z,10.04
2022-10-04T05:50:55.890Z,10.07
2022-10-04T05:52:01.627Z,10.09
2022-10-04T05:53:24.655Z,10.12
2022-10-04T05:54:31.582Z,10.13
2022-10-04T05:55:40.692Z,10.15
2022-10-04T05:57:18.337Z,10.17
2022-10-04T05:58:44.652Z,10.19
2022-10-04T06:00:11.923Z,10.20
2022-10-04T06:01:27.546Z,10.19
2022-10-04T06:02:39.895Z,10.18
2022-10-04T06:03:54.338Z,10.18
2022-10-04T06:05:56.590Z,10.15
2022-10-04T06:07:03.108Z,10.15
2022-10-04T06:08:11.593Z,10.17
2022-10-04T06:09:31.837Z,10.18
2022-10-04T06:10:56.839Z,10.19
2022-10-04T06:12:05.415Z,10.22
2022-10-04T06:13:20.969Z,10.26
2022-10-04T06:14:38.859Z,10.27
2022-10-04T06:15:58.896Z,10.30
2022-10-04T06:17:26.222Z,10.32
2022-10-04T06:18:49.332Z,10.37
2022-10-04T06:20:05.994Z,10.39
2022-10-04T06:21:22.738Z,10.41
2022-10-04T06:22:27.113Z,10.45
2022-10-04T06:23:32.571Z,10.48
2022-10-04T06:24:39.016Z,10.52
2022-10-04T06:25:48.298Z,10.53
2022-10-04T06:26:55.158Z,10.55
2022-10-04T06:28:15.705Z,10.59
2022-10-04T06:29:22.048Z,10.60
2022-10-04T06:30:28.840Z,10.63
2022-10-04T06:31:55.362Z,10.66
2022-10-04T06:33:21.113Z,10.67
2022-10-04T06:34:48.512Z,10.67
2022-10-04T06:36:12.017Z,10.67
2022-10-04T06:37:31.508Z,10.69
2022-10-04T06:39:04.058Z,10.72
2022-10-04T06:40:27.142Z,10.75
2022-10-04T06:42:03.943Z,10.80
2022-10-04T06:43:40.920Z,10.83
2022-10-04T06:45:13.159Z,10.84
2022-10-04T06:46:38.110Z,10.85
2022-10-04T06:47:58.121Z,10.90
2022-10-04T06:49:21.199Z,10.94
2022-10-04T06:50:30.045Z,10.99
2022-10-04T06:51:58.767Z,11.05
2022-10-04T06:53:11.781Z,11.08
2022-10-04T06:54:34.482Z,11.14
2022-10-04T06:56:07.486Z,11.23
2022-10-04T06:57:31.899Z,11.32
2022-10-04T06:58:49.334Z,11.43
2022-10-04T07:00:11.790Z,11.51
2022-10-04T07:01:24.298Z,11.60
2022-10-04T07:02:33.154Z,11.67
2022-10-04T07:03:40.538Z,11.72
2022-10-04T07:05:07.535Z,11.78
2022-10-04T07:06:13.090Z,11.80
2022-10-04T07:07:25.189Z,11.83
2022-10-04T07:08:37.211Z,11.85
2022-10-04T07:09:43.541Z,11.86
2022-10-04T07:10:57.449Z,11.83
2022-10-04T07:12:08.970Z,11.82
2022-10-04T07:13:18.761Z,11.80
2022-10-04T07:14:26.960Z,11.78
2022-10-04T07:15:34.430Z,11.75
2022-10-04T07:16:44.077Z,11.73
2022-10-04T07:17:49.830Z,11.70
2022-10-04T07:19:00.486Z,11.66
2022-10-04T07:20:34.125Z,11.64
2022-10-04T07:21:46.472Z,11.66
2022-10-04T07:22:55.209Z,11.69
2022-10-04T07:24:02.070Z,11.70
2022-10-04T07:25:12.646Z,11.69
2022-10-04T07:26:23.353Z,11.67
2022-10-04T07:27:31.848Z,11.66
2022-10-04T07:28:59.396Z,11.67
2022-10-04T07:30:10.048Z,11.69
2022-10-04T07:31:16.701Z,11.71
2022-10-04T07:32:22.890Z,11.76
2022-10-04T07:33:30.710Z,11.80
2022-10-04T07:34:40.988Z,11.83
2022-10-04T07:35:46.962Z,11.84
2022-10-04T07:36:53.887Z,11.83
2022-10-04T07:38:40.418Z,11.85
2022-10-04T07:39:50.721Z,11.83
2022-10-04T07:41:09.292Z,11.84
2022-10-04T07:42:20.291Z,11.86
2022-10-04T07:43:30.487Z,11.90
2022-10-04T07:44:37.048Z,11.96
2022-10-04T07:45:43.300Z,12.01
2022-10-04T07:46:50.557Z,12.03
2022-10-04T07:48:04.449Z,12.02
2022-10-04T07:49:15.964Z,12.04
2022-10-04T07:50:28.616Z,12.04
2022-10-04T07:51:34.903Z,12.05
2022-10-04T07:52:53.037Z,12.05
2022-10-04T07:54:01.778Z,12.04
2022-10-04T07:55:14.139Z,12.06
2022-10-04T07:56:20.906Z,12.07
2022-10-04T07:57:31.326Z,12.08
2022-10-04T07:58:45.758Z,12.09
2022-10-04T07:59:55.897Z,12.10
2022-10-04T08:01:02.716Z,12.14
2022-10-04T08:02:17.581Z,12.17
2022-10-04T08:03:36.872Z,12.19
2022-10-04T08:04:45.959Z,12.22
2022-10-04T08:05:54.663Z,12.27
2022-10-04T08:07:00.352Z,12.33
2022-10-04T08:08:34.419Z,12.38
2022-10-04T08:09:55.163Z,12.41
2022-10-04T08:11:15.842Z,12.41
2022-10-04T08:12:23.623Z,12.42
2022-10-04T08:13:31.157Z,12.49
2022-10-04T08:14:58.279Z,12.62
2022-10-04T08:16:21.870Z,12.74
2022-10-04T08:17:48.888Z,12.84
2022-10-04T08:19:10.518Z,12.96
2022-10-04T08:20:35.108Z,13.07
2022-10-04T08:21:49.069Z,13.14
2022-10-04T08:23:05.198Z,13.24
2022-10-04T08:24:17.194Z,13.33
2022-10-04T08:25:26.784Z,13.43
2022-10-04T08:26:41.419Z,13.54
2022-10-04T08:28:13.036Z,13.61
2022-10-04T08:29:48.034Z,13.65
2022-10-04T08:31:09.579Z,13.71
2022-10-04T08:32:24.902Z,13.78
2022-10-04T08:33:40.492Z,13.80
2022-10-04T08:35:02.626Z,13.76
2022-10-04T08:36:21.191Z,13.68
2022-10-04T08:37:31.743Z,13.61
2022-10-04T08:38:45.475Z,13.51
2022-10-04T08:40:00.136Z,13.43
2022-10-04T08:41:39.597Z,13.35
2022-10-04T08:43:05.408Z,13.22
2022-10-04T08:44:48.268Z,13.08
2022-10-04T08:46:09.991Z,12.92
2022-10-04T08:47:41.538Z,12.82
2022-10-04T08:49:23.278Z,12.74
2022-10-04T08:51:20.964Z,12.69
2022-10-04T08:52:44.583Z,12.65
2022-10-04T08:54:50.891Z,12.65
2022-10-04T08:56:07.655Z,12.63
2022-10-04T08:57:31.287Z,12.64
2022-10-04T08:59:09.307Z,12.63
2022-10-04T09:01:32.591Z,12.57
2022-10-04T09:03:14.009Z,12.57
2022-10-04T09:04:48.398Z,12.61
2022-10-04T09:06:02.688Z,12.64
2022-10-04T09:07:21.297Z,12.66
2022-10-04T09:08:59.241Z,12.70
2022-10-04T09:10:35.292Z,12.96
2022-10-04T09:12:12.368Z,13.20
2022-10-04T09:13:36.753Z,13.36
2022-10-04T09:15:06.016Z,13.53
2022-10-04T09:16:17.922Z,13.70
2022-10-04T09:17:23.456Z,13.83
2022-10-04T09:18:52.826Z,14.04
2022-10-04T09:20:37.375Z,14.27
2022-10-04T09:21:51.311Z,14.43
2022-10-04T09:23:00.726Z,14.52
2022-10-04T09:24:30.127Z,14.63
2022-10-04T09:25:49.471Z,14.70
2022-10-04T09:27:01.058Z,14.74
2022-10-04T09:28:20.928Z,14.77
2022-10-04T09:29:48.286Z,14.79
2022-10-04T09:31:02.462Z,14.88
2022-10-04T09:32:52.330Z,14.95
2022-10-04T09:34:22.556Z,14.97
2022-10-04T09:35:51.253Z,15.10
2022-10-04T09:37:21.280Z,15.14
2022-10-04T09:38:41.156Z,15.17
2022-10-04T09:40:04.505Z,15.24
2022-10-04T09:41:44.446Z,15.35
2022-10-04T09:43:34.352Z,15.41
2022-10-04T09:45:08.607Z,15.50
2022-10-04T09:46:21.302Z,15.50
2022-10-04T09:47:49.477Z,15.52
2022-10-04T09:49:02.634Z,15.53
2022-10-04T09:50:33.090Z,15.49
2022-10-04T09:52:09.316Z,15.46
2022-10-04T09:53:44.239Z,15.46
2022-10-04T09:55:18.932Z,15.41
2022-10-04T09:56:51.837Z,15.34
2022-10-04T09:58:13.597Z,15.28
2022-10-04T09:59:53.430Z,15.24
2022-10-04T10:01:03.498Z,15.21
2022-10-04T10:02:41.596Z,15.14
2022-10-04T10:03:59.091Z,15.02
2022-10-04T10:05:23.168Z,14.95
2022-10-04T10:07:04.830Z,14.78
2022-10-04T10:08:15.329Z,14.60
2022-10-04T10:09:48.037Z,14.47
2022-10-04T10:11:17.664Z,14.30
2022-10-04T10:12:52.190Z,14.17
2022-10-04T10:14:19.791Z,14.03
2022-10-04T10:15:33.005Z,13.94
2022-10-04T10:16:44.348Z,13.86
2022-10-04T10:17:51.748Z,13.82
2022-10-04T10:19:07.607Z,13.80
2022-10-04T10:20:27.417Z,13.84
2022-10-04T10:21:41.749Z,13.91
2022-10-04T10:23:24.668Z,14.02
2022-10-04T10:24:58.353Z,14.01
2022-10-04T10:26:36.331Z,14.05
2022-10-04T10:28:08.077Z,14.23
2022-10-04T10:29:45.153Z,14.55
2022-10-04T10:31:04.316Z,14.84
2022-10-04T10:32:24.900Z,15.11
2022-10-04T10:33:50.752Z,15.36
2022-10-04T10:35:43.097Z,15.62
2022-10-04T10:36:54.404Z,15.88
2022-10-04T10:38:16.836Z,16.11
2022-10-04T10:39:39.364Z,16.32
2022-10-04T10:41:11.905Z,16.48
2022-10-04T10:42:28.059Z,16.50
2022-10-04T10:43:56.615Z,16.49
2022-10-04T10:45:18.058Z,16.48
2022-10-04T10:46:59.934Z,16.47
2022-10-04T10:48:11.068Z,16.47
2022-10-04T10:50:02.649Z,16.40
2022-10-04T10:51:13.057Z,16.30
2022-10-04T10:53:14.716Z,16.10
2022-10-04T10:55:08.273Z,15.80
2022-10-04T10:56:36.033Z,15.57
2022-10-04T10:58:02.797Z,15.36
2022-10-04T10:59:55.825Z,15.07
2022-10-04T11:01:15.985Z,14.84
2022-10-04T11:03:13.230Z,14.74
2022-10-04T11:04:40.628Z,14.79
2022-10-04T11:06:10.212Z,14.89
2022-10-04T11:07:34.787Z,15.05
2022-10-04T11:09:14.994Z,15.32
2022-10-04T11:11:04.776Z,15.61
2022-10-04T11:12:57.721Z,15.82
2022-10-04T11:14:33.638Z,15.95
2022-10-04T11:18:16.992Z,15.76
2022-10-04T11:19:54.270Z,15.91
2022-10-04T11:21:28.518Z,16.11
2022-10-04T11:23:29.378Z,16.30
2022-10-04T11:24:55.548Z,16.43
2022-10-04T11:26:20.567Z,16.60
2022-10-04T11:27:32.266Z,16.73
2022-10-04T11:28:40.045Z,16.80
2022-10-04T11:30:00.466Z,16.70
2022-10-04T11:31:32.450Z,16.45
2022-10-04T11:33:12.128Z,16.23
2022-10-04T11:34:59.947Z,16.01
2022-10-04T11:36:24.724Z,15.83
2022-10-04T11:37:44.032Z,15.87
2022-10-04T11:39:04.364Z,15.97
2022-10-04T11:40:25.265Z,15.99
2022-10-04T11:41:36.826Z,15.96
2022-10-04T11:43:50.598Z,15.75
2022-10-04T11:45:19.727Z,15.63
2022-10-04T11:46:36.452Z,15.67
2022-10-04T11:47:43.515Z,15.69
2022-10-04T11:49:19.371Z,15.70
2022-10-04T11:50:40.365Z,15.88
2022-10-04T11:52:04.990Z,16.13
2022-10-04T11:53:31.038Z,16.51
2022-10-04T11:55:16.651Z,16.98
2022-10-04T11:56:34.321Z,17.38
2022-10-04T11:57:45.560Z,17.64
2022-10-04T11:59:22.501Z,18.05
2022-10-04T12:00:34.228Z,18.38
2022-10-04T12:02:07.264Z,18.68
2022-10-04T12:03:47.843Z,18.90
2022-10-04T12:05:29.828Z,18.95
2022-10-04T12:06:49.207Z,18.95
2022-10-04T12:08:07.618Z,18.98
2022-10-04T12:09:28.415Z,18.99
2022-10-04T12:10:36.107Z,18.90
2022-10-04T12:12:21.055Z,18.61
2022-10-04T12:13:51.757Z,18.13
2022-10-04T12:15:10.008Z,17.89
2022-10-04T12:16:39.237Z,17.68
2022-10-04T12:18:11.938Z,17.63
2022-10-04T12:19:33.608Z,17.63
2022-10-04T12:20:44.635Z,17.60
2022-10-04T12:22:10.344Z,17.72
2022-10-04T12:23:48.047Z,18.06
2022-10-04T12:25:14.758Z,18.60
2022-10-04T12:26:46.925Z,19.07
2022-10-04T12:28:11.790Z,19.36
2022-10-04T12:29:36.919Z,19.71
2022-10-04T12:30:56.045Z,20.19
2022-10-04T12:32:02.351Z,20.47
2022-10-04T12:33:13.869Z,20.69
2022-10-04T12:34:24.956Z,20.92
2022-10-04T12:35:35.348Z,21.20
2022-10-04T12:37:13.646Z,21.54
2022-10-04T12:38:48.607Z,21.65
2022-10-04T12:40:08.979Z,21.28
2022-10-04T12:41:28.032Z,20.79
2022-10-04T12:42:40.008Z,20.30
2022-10-04T12:43:52.956Z,19.89
2022-10-04T12:45:10.659Z,19.56
2022-10-04T12:46:25.519Z,19.18
2022-10-04T12:47:44.989Z,18.86
2022-10-04T12:49:08.838Z,18.77
2022-10-04T12:50:23.027Z,18.93
2022-10-04T12:51:39.719Z,19.14
2022-10-04T12:52:47.365Z,19.29
2022-10-04T12:53:58.943Z,19.53
2022-10-04T12:55:12.038Z,19.81
2022-10-04T12:56:46.711Z,20.18
2022-10-04T12:57:55.581Z,20.51
2022-10-04T12:59:32.580Z,20.84
2022-10-04T13:00:39.836Z,20.96
2022-10-04T13:01:51.406Z,20.87
2022-10-04T13:03:06.186Z,20.62
2022-10-04T13:04:23.783Z,20.28
2022-10-04T13:05:34.112Z,19.98
2022-10-04T13:06:59.875Z,19.61
2022-10-04T13:08:38.087Z,19.17
2022-10-04T13:10:05.486Z,18.89
2022-10-04T13:11:40.676Z,18.57
2022-10-04T13:13:11.520Z,18.22
2022-10-04T13:14:40.118Z,17.99
2022-10-04T13:17:42.569Z,17.61
2022-10-04T13:18:57.006Z,17.52
2022-10-04T13:20:32.287Z,17.67
2022-10-04T13:22:12.535Z,17.85
2022-10-04T13:23:28.850Z,18.20
2022-10-04T13:24:55.315Z,18.58
2022-10-04T13:26:27.507Z,18.83
2022-10-04T13:27:41.479Z,18.97
2022-10-04T13:28:50.907Z,19.22
2022-10-04T13:30:02.629Z,19.35
2022-10-04T13:31:16.029Z,19.54
2022-10-04T13:32:45.673Z,19.84
2022-10-04T13:33:58.685Z,20.08
2022-10-04T13:35:12.738Z,20.33
2022-10-04T13:36:21.448Z,20.54
2022-10-04T13:37:32.656Z,20.63
2022-10-04T13:39:01.597Z,20.91
2022-10-04T13:40:26.130Z,21.16
2022-10-04T13:41:40.866Z,21.22
2022-10-04T13:43:09.259Z,21.00
2022-10-04T13:44:40.911Z,20.48
2022-10-04T13:45:56.660Z,19.89
2022-10-04T13:47:18.982Z,19.40
2022-10-04T13:48:32.527Z,18.90
2022-10-04T13:49:49.890Z,18.46
2022-10-04T13:51:13.669Z,18.01
2022-10-04T13:52:43.710Z,17.74
2022-10-04T13:54:12.353Z,17.87
2022-10-04T13:55:43.839Z,18.04
2022-10-04T13:57:08.010Z,18.43
2022-10-04T13:58:27.616Z,18.77
2022-10-04T13:59:44.709Z,19.04
2022-10-04T14:01:03.887Z,19.35
2022-10-04T14:02:34.317Z,19.66
2022-10-04T14:03:49.579Z,19.91
2022-10-04T14:05:29.528Z,20.13
2022-10-04T14:06:53.963Z,20.10
2022-10-04T14:10:24.386Z,20.03
2022-10-04T14:11:45.101Z,20.18
2022-10-04T14:13:12.338Z,20.27
2022-10-04T14:15:04.688Z,20.31
2022-10-04T14:16:27.320Z,20.38
2022-10-04T14:18:10.335Z,20.44
2022-10-04T14:19:37.976Z,20.43
2022-10-04T14:21:19.755Z,20.51
2022-10-04T14:22:54.011Z,20.49
2022-10-04T14:24:13.538Z,20.62
2022-10-04T14:25:42.040Z,20.76
2022-10-04T14:27:14.400Z,20.78
2022-10-04T14:28:41.028Z,20.68
2022-10-04T14:30:12.785Z,20.63
2022-10-04T14:31:48.485Z,20.40
2022-10-04T14:33:17.248Z,20.14
2022-10-04T14:34:37.091Z,20.21
2022-10-04T14:35:46.947Z,20.27
2022-10-04T14:37:05.988Z,20.44
2022-10-04T14:38:52.873Z,20.53
2022-10-04T14:40:22.607Z,20.64
2022-10-04T14:41:53.690Z,20.60
2022-10-04T14:43:15.641Z,20.23
2022-10-04T14:44:31.551Z,19.74
2022-10-04T14:45:43.457Z,19.35
2022-10-04T14:46:57.114Z,18.95
2022-10-04T14:48:36.387Z,18.51
2022-10-04T14:50:00.147Z,18.08
2022-10-04T14:51:27.049Z,17.72
2022-10-04T14:52:39.718Z,17.42
2022-10-04T14:53:52.228Z,17.22
2022-10-04T14:55:04.174Z,17.05
2022-10-04T14:56:33.461Z,16.87
2022-10-04T14:57:51.830Z,16.67
2022-10-04T14:59:05.206Z,16.46
2022-10-04T15:00:19.255Z,16.26
2022-10-04T15:01:25.468Z,16.06
2022-10-04T15:02:51.479Z,15.83
2022-10-04T15:04:14.344Z,15.64
2022-10-04T15:05:37.301Z,15.49
2022-10-04T15:06:49.409Z,15.38
2022-10-04T15:07:56.160Z,15.28
2022-10-04T15:09:33.009Z,15.18
2022-10-04T15:10:40.472Z,15.00
2022-10-04T15:12:21.678Z,14.87
2022-10-04T15:13:24.607Z,14.72
2022-10-04T15:14:37.469Z,14.63
2022-10-04T15:15:59.269Z,14.55
2022-10-04T15:17:08.366Z,14.50
2022-10-04T15:18:30.789Z,14.42
2022-10-04T15:19:51.098Z,14.38
2022-10-04T15:21:02.433Z,14.36
2022-10-04T15:22:24.020Z,14.32
2022-10-04T15:23:38.410Z,14.31
2022-10-04T15:24:49.520Z,14.29
2022-10-04T15:25:55.931Z,14.28
2022-10-04T15:27:31.321Z,14.26
2022-10-04T15:29:28.447Z,14.06
2022-10-04T15:30:39.709Z,13.95
2022-10-04T15:31:54.584Z,13.84
2022-10-04T15:33:25.811Z,13.75
2022-10-04T15:34:35.856Z,13.70
2022-10-04T15:35:48.438Z,13.68
2022-10-04T15:37:06.600Z,13.66
2022-10-04T15:38:21.939Z,13.70
2022-10-04T15:40:00.571Z,13.72
2022-10-04T15:42:38.808Z,13.53
2022-10-04T15:43:45.437Z,13.41
2022-10-04T15:45:30.591Z,13.25
2022-10-04T15:46:51.913Z,13.14
2022-10-04T15:48:27.795Z,13.01
2022-10-04T15:50:04.602Z,12.83
2022-10-04T15:51:18.235Z,12.72
2022-10-04T15:52:58.769Z,12.57
2022-10-04T15:54:17.540Z,12.42
2022-10-04T15:55:34.279Z,12.31
2022-10-04T15:56:46.768Z,12.21
2022-10-04T15:58:17.115Z,12.12
2022-10-04T15:59:46.130Z,11.97
2022-10-04T16:01:04.252Z,11.85
2022-10-04T16:02:49.124Z,11.69
2022-10-04T16:04:14.022Z,11.53
2022-10-04T16:05:29.248Z,11.43
2022-10-04T16:06:43.777Z,11.35
2022-10-04T16:08:17.430Z,11.25
2022-10-04T16:09:39.819Z,11.16
2022-10-04T16:11:33.660Z,11.09
2022-10-04T16:13:28.903Z,10.96
2022-10-04T16:15:01.354Z,10.80
2022-10-04T16:16:49.257Z,10.66
2022-10-04T16:18:29.647Z,10.54
2022-10-04T16:20:00.429Z,10.40
2022-10-04T16:23:40.474Z,10.13
2022-10-04T16:25:26.967Z,10.00
2022-10-04T16:30:28.533Z,9.71
2022-10-04T16:31:46.497Z,9.58
2022-10-04T16:36:12.718Z,9.33
2022-10-04T16:37:37.349Z,9.20
2022-10-04T16:53:23.260Z,8.50
2022-10-04T17:04:42.420Z,7.93
2022-10-04T18:23:14.608Z,6.29
2022-10-04T19:28:36.458Z,4.59
2022-10-04T21:41:08.564Z,2.62
2022-10-04T22:31:29.718Z,2.27
2022-10-04T22:32:42.371Z,2.26
2022-10-04T22:36:44.030Z,2.25
2022-10-04T22:41:02.505Z,2.28
2022-10-04T22:49:43.138Z,2.17
2022-10-04T22:51:53.301Z,2.17
2022-10-04T22:53:54.697Z,2.13
